createdAt,value
2023-03-16T00:02:50.615Z,1.17
2023-03-16T00:07:52.473Z,0.90
2023-03-16T00:12:55.360Z,1.43
2023-03-16T00:17:57.190Z,1.50
2023-03-16T00:22:59.191Z,0.90
2023-03-16T00:28:04.246Z,1.37
2023-03-16T00:33:06.061Z,0.97
2023-03-16T00:38:07.935Z,1.10
2023-03-16T00:43:09.846Z,1.00
2023-03-16T00:48:12.009Z,1.50
2023-03-16T00:53:13.770Z,1.20
2023-03-16T00:58:15.687Z,1.20
2023-03-16T01:03:17.659Z,1.50
2023-03-16T01:08:19.582Z,1.00
2023-03-16T01:13:22.079Z,1.10
2023-03-16T01:18:25.173Z,1.10
2023-03-16T01:23:29.817Z,1.20
2023-03-16T01:28:32.787Z,1.20
2023-03-16T01:33:35.451Z,1.17
2023-03-16T01:38:39.608Z,1.07
2023-03-16T01:43:42.539Z,1.40
2023-03-16T01:48:44.335Z,1.20
2023-03-16T01:53:49.898Z,2.00
2023-03-16T01:58:58.581Z,1.37
2023-03-16T02:04:18.963Z,1.17
2023-03-16T02:09:22.974Z,0.97
2023-03-16T02:14:24.881Z,1.43
2023-03-16T02:19:54.661Z,1.10
2023-03-16T02:24:56.530Z,1.20
2023-03-16T02:30:19.475Z,1.53
2023-03-16T02:35:33.209Z,1.33
2023-03-16T02:40:37.175Z,1.40
2023-03-16T02:46:05.110Z,1.13
2023-03-16T02:51:07.453Z,1.57
2023-03-16T02:56:09.488Z,1.30
2023-03-16T03:01:12.102Z,0.90
2023-03-16T03:06:14.694Z,1.20
2023-03-16T03:11:18.555Z,1.30
2023-03-16T03:16:21.274Z,1.10
2023-03-16T03:21:24.488Z,1.30
2023-03-16T03:26:26.922Z,1.30
2023-03-16T03:31:31.537Z,1.30
2023-03-16T03:36:34.830Z,1.17
2023-03-16T03:41:36.881Z,1.10
2023-03-16T03:46:41.027Z,1.47
2023-03-16T03:51:44.139Z,1.37
2023-03-16T03:56:51.031Z,1.40
2023-03-16T04:01:53.792Z,1.43
2023-03-16T04:06:57.765Z,1.50
2023-03-16T04:12:01.857Z,1.70
2023-03-16T04:17:04.902Z,1.60
2023-03-16T04:22:08.667Z,1.67
2023-03-16T04:27:12.099Z,1.40
2023-03-16T04:32:15.370Z,1.40
2023-03-16T04:37:19.014Z,1.37
2023-03-16T04:42:21.830Z,1.30
2023-03-16T04:47:23.884Z,1.70
2023-03-16T04:52:25.862Z,1.27
2023-03-16T04:57:27.819Z,1.77
2023-03-16T05:02:29.694Z,1.37
2023-03-16T05:07:35.311Z,1.57
2023-03-16T05:12:38.546Z,1.53
2023-03-16T05:17:42.609Z,1.37
2023-03-16T05:22:48.199Z,1.60
2023-03-16T05:28:03.063Z,1.50
2023-03-16T05:33:13.946Z,1.77
2023-03-16T05:38:16.395Z,1.57
2023-03-16T05:43:21.054Z,1.50
2023-03-16T05:48:25.916Z,1.90
2023-03-16T05:53:31.273Z,2.23
2023-03-16T05:58:40.734Z,1.57
2023-03-16T06:03:43.968Z,1.63
2023-03-16T06:08:52.536Z,2.30
2023-03-16T06:13:58.003Z,2.43
2023-03-16T06:19:01.036Z,1.83
2023-03-16T06:24:04.795Z,2.10
2023-03-16T06:29:07.299Z,1.97
2023-03-16T06:34:11.597Z,1.80
2023-03-16T06:39:14.457Z,2.27
2023-03-16T06:44:21.130Z,1.90
2023-03-16T06:49:33.907Z,3.10
2023-03-16T06:54:38.366Z,2.00
2023-03-16T06:59:41.304Z,2.37
2023-03-16T07:04:43.730Z,2.50
2023-03-16T07:09:45.995Z,2.23
2023-03-16T07:14:51.810Z,2.37
2023-03-16T07:19:57.695Z,2.80
2023-03-16T07:24:59.782Z,2.13
2023-03-16T07:30:05.107Z,2.53
2023-03-16T07:35:11.558Z,2.30
2023-03-16T07:40:14.787Z,2.97
2023-03-16T07:45:18.044Z,2.73
2023-03-16T07:50:22.247Z,2.10
2023-03-16T07:55:24.834Z,4.13
2023-03-16T08:00:28.594Z,2.30
2023-03-16T08:05:32.602Z,2.40
2023-03-16T08:10:37.338Z,2.47
2023-03-16T08:15:47.904Z,2.57
2023-03-16T08:20:58.633Z,2.50
2023-03-16T08:26:01.180Z,2.30
2023-03-16T08:31:07.126Z,2.20
2023-03-16T08:36:20.933Z,2.43
2023-03-16T08:41:25.428Z,3.90
2023-03-16T08:46:28.845Z,2.30
2023-03-16T08:51:34.341Z,2.50
2023-03-16T08:56:36.882Z,2.03
2023-03-16T09:01:40.526Z,2.30
2023-03-16T09:06:42.471Z,2.40
2023-03-16T09:11:45.157Z,2.10
2023-03-16T09:16:47.136Z,1.77
2023-03-16T09:21:49.008Z,1.40
2023-03-16T09:26:50.926Z,1.40
2023-03-16T09:31:53.138Z,1.13
2023-03-16T09:36:55.353Z,1.17
2023-03-16T09:42:14.926Z,1.13
2023-03-16T09:47:29.715Z,1.30
2023-03-16T09:53:12.877Z,1.37
2023-03-16T09:58:22.474Z,1.40
2023-03-16T10:03:34.088Z,1.77
2023-03-16T10:09:08.237Z,1.20
2023-03-16T10:14:11.191Z,1.50
2023-03-16T10:19:25.669Z,1.40
2023-03-16T10:24:34.252Z,1.70
2023-03-16T10:29:37.120Z,1.37
2023-03-16T10:34:39.018Z,1.30
2023-03-16T10:39:43.050Z,1.10
2023-03-16T10:44:46.115Z,1.50
2023-03-16T10:49:48.993Z,1.30
2023-03-16T10:54:56.251Z,1.20
2023-03-16T11:00:11.950Z,0.97
2023-03-16T11:05:14.040Z,1.37
2023-03-16T11:10:46.124Z,0.87
2023-03-16T11:15:55.778Z,0.90
2023-03-16T11:21:05.345Z,0.90
2023-03-16T11:26:17.600Z,0.90
2023-03-16T11:31:40.429Z,1.10
2023-03-16T11:36:57.117Z,1.20
2023-03-16T11:42:16.686Z,0.90
2023-03-16T11:47:52.680Z,0.97
2023-03-16T11:53:24.371Z,1.00
2023-03-16T11:58:38.070Z,0.80
2023-03-16T12:03:59.284Z,0.80
2023-03-16T12:09:16.581Z,1.10
2023-03-16T12:14:34.472Z,0.93
2023-03-16T12:20:07.134Z,1.00
2023-03-16T12:25:23.878Z,1.30
2023-03-16T12:31:01.792Z,1.20
2023-03-16T12:36:38.824Z,0.90
2023-03-16T12:41:57.976Z,0.77
2023-03-16T12:47:22.406Z,0.90
2023-03-16T12:52:24.224Z,0.90
2023-03-16T12:57:27.089Z,0.87
2023-03-16T13:02:35.772Z,0.97
2023-03-16T13:07:46.364Z,0.90
2023-03-16T13:12:48.540Z,0.80
2023-03-16T13:18:06.766Z,1.00
2023-03-16T13:23:18.238Z,0.73
2023-03-16T13:28:26.150Z,0.80
2023-03-16T13:33:33.758Z,1.03
2023-03-16T13:38:36.198Z,0.87
2023-03-16T13:43:44.349Z,1.10
2023-03-16T13:48:50.392Z,0.70
2023-03-16T13:53:53.618Z,1.00
2023-03-16T13:58:58.583Z,0.80
2023-03-16T14:04:08.534Z,1.00
2023-03-16T14:09:18.078Z,0.73
2023-03-16T14:14:32.944Z,0.93
2023-03-16T14:19:47.884Z,0.70
2023-03-16T14:25:00.703Z,0.77
2023-03-16T14:30:19.543Z,0.70
2023-03-16T14:35:22.401Z,0.70
2023-03-16T14:40:31.969Z,0.83
2023-03-16T14:45:36.147Z,0.70
2023-03-16T14:50:38.350Z,0.83
2023-03-16T14:55:40.504Z,0.80
2023-03-16T15:00:52.591Z,0.77
2023-03-16T15:05:55.916Z,0.60
2023-03-16T15:11:06.364Z,0.70
2023-03-16T15:16:12.591Z,0.80
2023-03-16T15:21:23.312Z,0.80
2023-03-16T15:26:27.403Z,1.00
2023-03-16T15:31:29.220Z,0.60
2023-03-16T15:36:31.863Z,1.00
2023-03-16T15:41:45.266Z,0.73
2023-03-16T15:46:49.578Z,0.70
2023-03-16T15:51:51.684Z,0.60
2023-03-16T15:56:55.899Z,0.80
2023-03-16T16:01:57.781Z,0.60
2023-03-16T16:07:02.180Z,0.80
2023-03-16T16:12:04.139Z,0.70
2023-03-16T16:17:15.759Z,0.97
2023-03-16T16:22:19.157Z,0.60
2023-03-16T16:27:21.038Z,1.00
2023-03-16T16:32:23.939Z,0.80
2023-03-16T16:37:25.733Z,0.80
2023-03-16T16:42:27.545Z,0.80
2023-03-16T16:47:29.505Z,0.93
2023-03-16T16:52:32.281Z,0.70
2023-03-16T16:57:34.179Z,1.13
2023-03-16T17:02:51.608Z,1.20
2023-03-16T17:07:54.428Z,1.10
2023-03-16T17:12:57.107Z,1.50
2023-03-16T17:18:13.303Z,1.60
2023-03-16T17:23:36.601Z,1.03
2023-03-16T17:28:43.237Z,1.40
2023-03-16T17:33:45.074Z,2.97
2023-03-16T17:38:47.891Z,2.67
2023-03-16T17:43:55.360Z,2.67
2023-03-16T17:48:57.174Z,2.57
2023-03-16T17:53:58.988Z,2.20
2023-03-16T17:59:05.494Z,2.23
2023-03-16T18:04:23.507Z,2.20
2023-03-16T18:09:25.321Z,1.50
2023-03-16T18:14:39.761Z,5.20
2023-03-16T18:19:43.485Z,2.47
2023-03-16T18:24:46.440Z,1.83
2023-03-16T18:29:48.372Z,1.40
2023-03-16T18:34:52.420Z,1.80
2023-03-16T18:39:54.993Z,3.30
2023-03-16T18:44:57.142Z,1.40
2023-03-16T18:49:59.815Z,1.40
2023-03-16T18:55:01.659Z,1.67
2023-03-16T19:00:04.337Z,2.13
2023-03-16T19:05:35.831Z,1.90
2023-03-16T19:10:41.967Z,1.77
2023-03-16T19:15:43.843Z,2.50
2023-03-16T19:20:50.906Z,4.77
2023-03-16T19:25:54.548Z,5.40
2023-03-16T19:30:57.209Z,3.00
2023-03-16T19:35:59.510Z,3.27
2023-03-16T19:41:01.595Z,3.10
2023-03-16T19:46:03.491Z,2.80
2023-03-16T19:51:06.146Z,2.70
2023-03-16T19:56:15.269Z,2.60
2023-03-16T20:01:39.733Z,3.07
2023-03-16T20:06:41.680Z,2.63
2023-03-16T20:11:43.815Z,3.07
2023-03-16T20:16:48.047Z,3.53
2023-03-16T20:21:50.049Z,3.40
2023-03-16T20:26:53.938Z,2.80
2023-03-16T20:31:56.158Z,3.03
2023-03-16T20:36:58.727Z,3.03
2023-03-16T20:42:00.951Z,2.30
2023-03-16T20:47:02.808Z,2.40
2023-03-16T20:52:20.344Z,2.10
2023-03-16T20:57:27.457Z,2.20
2023-03-16T21:02:35.137Z,4.10
2023-03-16T21:07:36.991Z,3.20
2023-03-16T21:12:44.744Z,1.97
2023-03-16T21:17:47.520Z,2.53
2023-03-16T21:22:52.328Z,2.80
2023-03-16T21:27:55.531Z,1.40
2023-03-16T21:32:59.825Z,2.00
2023-03-16T21:38:11.818Z,1.80
2023-03-16T21:43:14.543Z,2.13
2023-03-16T21:48:37.912Z,2.03
2023-03-16T21:53:40.190Z,1.70
2023-03-16T21:58:43.427Z,2.23
2023-03-16T22:03:53.294Z,1.70
2023-03-16T22:08:56.557Z,1.83
2023-03-16T22:14:01.901Z,1.43
2023-03-16T22:19:04.503Z,1.57
2023-03-16T22:24:15.093Z,2.10
2023-03-16T22:29:35.106Z,1.60
2023-03-16T22:34:45.663Z,1.33
2023-03-16T22:39:48.241Z,2.27
2023-03-16T22:44:50.227Z,2.07
2023-03-16T22:49:52.322Z,2.20
2023-03-16T22:54:54.244Z,1.77
2023-03-16T22:59:56.470Z,2.00
2023-03-16T23:04:58.333Z,1.77
2023-03-16T23:10:00.539Z,1.83
2023-03-16T23:15:03.324Z,1.80
2023-03-16T23:20:27.569Z,1.80
2023-03-16T23:25:29.525Z,2.03
2023-03-16T23:30:32.365Z,1.80
2023-03-16T23:35:34.605Z,1.77
2023-03-16T23:40:38.515Z,1.40
2023-03-16T23:45:48.422Z,1.87
2023-03-16T23:50:55.044Z,1.80
2023-03-16T23:55:57.348Z,2.10
